sensor_id;sensor_type;location;lat;lon;timestamp;P1;durP1;ratioP1;P2;durP2;ratioP2
82242;SDS011;71844;51.528;4.442;2024-02-14T00:01:06;5.32;;;3.42;;
82242;SDS011;71844;51.528;4.442;2024-02-14T00:03:36;6.90;;;3.20;;
82242;SDS011;71844;51.528;4.442;2024-02-14T00:06:05;5.95;;;3.20;;
82242;SDS011;71844;51.528;4.442;2024-02-14T00:08:33;7.47;;;3.10;;
82242;SDS011;71844;51.528;4.442;2024-02-14T00:11:00;4.85;;;2.63;;
82242;SDS011;71844;51.528;4.442;2024-02-14T00:13:28;5.57;;;2.85;;
82242;SDS011;71844;51.528;4.442;2024-02-14T00:15:55;5.35;;;3.25;;
82242;SDS011;71844;51.528;4.442;2024-02-14T00:18:23;5.65;;;3.15;;
82242;SDS011;71844;51.528;4.442;2024-02-14T00:20:50;5.47;;;3.42;;
82242;SDS011;71844;51.528;4.442;2024-02-14T00:23:17;5.10;;;3.33;;
82242;SDS011;71844;51.528;4.442;2024-02-14T00:25:43;5.97;;;3.47;;
82242;SDS011;71844;51.528;4.442;2024-02-14T00:28:10;7.47;;;3.22;;
82242;SDS011;71844;51.528;4.442;2024-02-14T00:30:37;5.30;;;3.22;;
82242;SDS011;71844;51.528;4.442;2024-02-14T00:33:08;6.53;;;4.13;;
82242;SDS011;71844;51.528;4.442;2024-02-14T00:35:35;6.07;;;3.38;;
82242;SDS011;71844;51.528;4.442;2024-02-14T00:38:02;5.97;;;3.65;;
82242;SDS011;71844;51.528;4.442;2024-02-14T00:40:29;8.40;;;3.47;;
82242;SDS011;71844;51.528;4.442;2024-02-14T00:42:56;7.00;;;4.03;;
82242;SDS011;71844;51.528;4.442;2024-02-14T00:45:23;7.20;;;4.05;;
82242;SDS011;71844;51.528;4.442;2024-02-14T00:47:50;6.47;;;4.13;;
82242;SDS011;71844;51.528;4.442;2024-02-14T00:50:17;5.25;;;3.10;;
82242;SDS011;71844;51.528;4.442;2024-02-14T00:52:44;7.55;;;3.92;;
82242;SDS011;71844;51.528;4.442;2024-02-14T00:55:11;6.03;;;4.07;;
82242;SDS011;71844;51.528;4.442;2024-02-14T00:57:38;9.50;;;4.40;;
82242;SDS011;71844;51.528;4.442;2024-02-14T01:00:05;7.65;;;4.22;;
82242;SDS011;71844;51.528;4.442;2024-02-14T01:02:33;7.25;;;3.92;;
82242;SDS011;71844;51.528;4.442;2024-02-14T01:05:00;8.73;;;4.55;;
82242;SDS011;71844;51.528;4.442;2024-02-14T01:07:27;11.75;;;5.05;;
82242;SDS011;71844;51.528;4.442;2024-02-14T01:09:54;7.55;;;4.20;;
82242;SDS011;71844;51.528;4.442;2024-02-14T01:12:21;9.40;;;4.20;;
82242;SDS011;71844;51.528;4.442;2024-02-14T01:14:48;7.00;;;4.57;;
82242;SDS011;71844;51.528;4.442;2024-02-14T01:17:15;6.80;;;4.47;;
82242;SDS011;71844;51.528;4.442;2024-02-14T01:19:42;8.15;;;4.53;;
82242;SDS011;71844;51.528;4.442;2024-02-14T01:22:10;7.63;;;3.90;;
82242;SDS011;71844;51.528;4.442;2024-02-14T01:24:37;7.55;;;4.97;;
82242;SDS011;71844;51.528;4.442;2024-02-14T01:27:03;6.20;;;4.07;;
82242;SDS011;71844;51.528;4.442;2024-02-14T01:29:31;6.90;;;3.92;;
82242;SDS011;71844;51.528;4.442;2024-02-14T01:31:58;7.93;;;3.67;;
82242;SDS011;71844;51.528;4.442;2024-02-14T01:34:25;6.75;;;3.53;;
82242;SDS011;71844;51.528;4.442;2024-02-14T01:36:52;6.70;;;3.83;;
82242;SDS011;71844;51.528;4.442;2024-02-14T01:39:19;6.30;;;3.90;;
82242;SDS011;71844;51.528;4.442;2024-02-14T01:41:48;6.50;;;3.50;;
82242;SDS011;71844;51.528;4.442;2024-02-14T01:44:15;6.95;;;3.63;;
82242;SDS011;71844;51.528;4.442;2024-02-14T01:46:43;6.90;;;3.63;;
82242;SDS011;71844;51.528;4.442;2024-02-14T01:49:11;7.13;;;3.92;;
82242;SDS011;71844;51.528;4.442;2024-02-14T01:51:42;5.93;;;3.60;;
82242;SDS011;71844;51.528;4.442;2024-02-14T01:54:11;8.05;;;3.75;;
82242;SDS011;71844;51.528;4.442;2024-02-14T01:56:40;5.95;;;3.60;;
82242;SDS011;71844;51.528;4.442;2024-02-14T02:04:23;7.93;;;3.95;;
82242;SDS011;71844;51.528;4.442;2024-02-14T02:06:51;6.35;;;3.63;;
82242;SDS011;71844;51.528;4.442;2024-02-14T02:09:22;5.35;;;3.40;;
82242;SDS011;71844;51.528;4.442;2024-02-14T02:11:50;7.63;;;4.20;;
82242;SDS011;71844;51.528;4.442;2024-02-14T02:14:19;6.57;;;3.60;;
82242;SDS011;71844;51.528;4.442;2024-02-14T02:16:48;6.28;;;3.65;;
82242;SDS011;71844;51.528;4.442;2024-02-14T02:19:15;7.03;;;4.07;;
82242;SDS011;71844;51.528;4.442;2024-02-14T02:21:43;6.57;;;3.80;;
82242;SDS011;71844;51.528;4.442;2024-02-14T02:24:13;6.20;;;3.75;;
82242;SDS011;71844;51.528;4.442;2024-02-14T02:26:40;6.30;;;3.95;;
82242;SDS011;71844;51.528;4.442;2024-02-14T02:29:07;7.15;;;4.30;;
82242;SDS011;71844;51.528;4.442;2024-02-14T02:31:33;6.53;;;4.18;;
82242;SDS011;71844;51.528;4.442;2024-02-14T02:34:00;6.97;;;3.90;;
82242;SDS011;71844;51.528;4.442;2024-02-14T02:36:28;9.02;;;4.63;;
82242;SDS011;71844;51.528;4.442;2024-02-14T02:38:56;7.45;;;4.20;;
82242;SDS011;71844;51.528;4.442;2024-02-14T02:41:24;6.07;;;3.92;;
82242;SDS011;71844;51.528;4.442;2024-02-14T02:43:51;7.07;;;3.83;;
82242;SDS011;71844;51.528;4.442;2024-02-14T02:46:23;5.95;;;3.83;;
82242;SDS011;71844;51.528;4.442;2024-02-14T02:48:52;7.57;;;3.63;;
82242;SDS011;71844;51.528;4.442;2024-02-14T02:51:21;14.15;;;4.20;;
82242;SDS011;71844;51.528;4.442;2024-02-14T02:53:48;5.85;;;3.70;;
82242;SDS011;71844;51.528;4.442;2024-02-14T02:56:15;8.60;;;3.72;;
82242;SDS011;71844;51.528;4.442;2024-02-14T02:58:42;6.65;;;3.83;;
82242;SDS011;71844;51.528;4.442;2024-02-14T03:01:10;5.68;;;3.20;;
82242;SDS011;71844;51.528;4.442;2024-02-14T03:03:38;7.30;;;3.70;;
82242;SDS011;71844;51.528;4.442;2024-02-14T03:06:05;7.10;;;4.07;;
82242;SDS011;71844;51.528;4.442;2024-02-14T03:08:33;8.13;;;3.72;;
82242;SDS011;71844;51.528;4.442;2024-02-14T03:11:04;6.40;;;3.05;;
82242;SDS011;71844;51.528;4.442;2024-02-14T03:13:32;7.65;;;3.88;;
82242;SDS011;71844;51.528;4.442;2024-02-14T03:15:59;7.40;;;3.85;;
82242;SDS011;71844;51.528;4.442;2024-02-14T03:18:26;8.95;;;3.35;;
82242;SDS011;71844;51.528;4.442;2024-02-14T03:20:54;7.15;;;3.55;;
82242;SDS011;71844;51.528;4.442;2024-02-14T03:23:21;5.18;;;3.03;;
82242;SDS011;71844;51.528;4.442;2024-02-14T03:25:48;5.32;;;3.33;;
82242;SDS011;71844;51.528;4.442;2024-02-14T03:28:15;7.25;;;3.13;;
82242;SDS011;71844;51.528;4.442;2024-02-14T03:30:42;6.45;;;3.35;;
82242;SDS011;71844;51.528;4.442;2024-02-14T03:33:09;7.03;;;3.42;;
82242;SDS011;71844;51.528;4.442;2024-02-14T03:35:36;4.38;;;3.05;;
82242;SDS011;71844;51.528;4.442;2024-02-14T03:38:03;5.40;;;3.20;;
82242;SDS011;71844;51.528;4.442;2024-02-14T03:40:30;5.65;;;3.05;;
82242;SDS011;71844;51.528;4.442;2024-02-14T03:42:57;5.18;;;2.80;;
82242;SDS011;71844;51.528;4.442;2024-02-14T03:45:24;7.13;;;3.40;;
82242;SDS011;71844;51.528;4.442;2024-02-14T03:47:51;8.38;;;3.55;;
82242;SDS011;71844;51.528;4.442;2024-02-14T03:50:18;9.00;;;3.83;;
82242;SDS011;71844;51.528;4.442;2024-02-14T03:52:45;5.80;;;3.33;;
82242;SDS011;71844;51.528;4.442;2024-02-14T03:55:12;8.05;;;3.75;;
82242;SDS011;71844;51.528;4.442;2024-02-14T03:57:40;6.70;;;3.53;;
82242;SDS011;71844;51.528;4.442;2024-02-14T04:00:08;7.43;;;4.10;;
82242;SDS011;71844;51.528;4.442;2024-02-14T04:02:37;8.90;;;4.32;;
82242;SDS011;71844;51.528;4.442;2024-02-14T04:05:06;7.32;;;4.53;;
82242;SDS011;71844;51.528;4.442;2024-02-14T04:07:34;8.32;;;3.42;;
82242;SDS011;71844;51.528;4.442;2024-02-14T04:10:02;8.00;;;3.58;;
82242;SDS011;71844;51.528;4.442;2024-02-14T04:12:30;10.20;;;3.88;;
82242;SDS011;71844;51.528;4.442;2024-02-14T04:14:57;8.68;;;4.13;;
82242;SDS011;71844;51.528;4.442;2024-02-14T04:17:31;7.47;;;3.55;;
82242;SDS011;71844;51.528;4.442;2024-02-14T04:19:58;7.57;;;4.53;;
82242;SDS011;71844;51.528;4.442;2024-02-14T04:22:25;8.27;;;3.90;;
82242;SDS011;71844;51.528;4.442;2024-02-14T04:24:52;6.93;;;3.72;;
82242;SDS011;71844;51.528;4.442;2024-02-14T04:27:19;7.40;;;3.17;;
82242;SDS011;71844;51.528;4.442;2024-02-14T04:29:46;8.30;;;4.22;;
82242;SDS011;71844;51.528;4.442;2024-02-14T04:32:15;7.40;;;3.88;;
82242;SDS011;71844;51.528;4.442;2024-02-14T04:34:45;11.35;;;4.75;;
82242;SDS011;71844;51.528;4.442;2024-02-14T04:37:13;8.68;;;4.45;;
82242;SDS011;71844;51.528;4.442;2024-02-14T04:39:41;7.93;;;4.60;;
82242;SDS011;71844;51.528;4.442;2024-02-14T04:42:08;6.78;;;4.20;;
82242;SDS011;71844;51.528;4.442;2024-02-14T04:44:36;6.43;;;4.07;;
82242;SDS011;71844;51.528;4.442;2024-02-14T04:47:03;6.93;;;3.72;;
82242;SDS011;71844;51.528;4.442;2024-02-14T04:49:30;8.55;;;4.68;;
82242;SDS011;71844;51.528;4.442;2024-02-14T04:51:57;6.47;;;3.78;;
82242;SDS011;71844;51.528;4.442;2024-02-14T04:54:25;6.03;;;3.65;;
82242;SDS011;71844;51.528;4.442;2024-02-14T04:56:53;6.82;;;3.75;;
82242;SDS011;71844;51.528;4.442;2024-02-14T04:59:24;6.63;;;4.30;;
82242;SDS011;71844;51.528;4.442;2024-02-14T05:01:55;7.05;;;4.30;;
82242;SDS011;71844;51.528;4.442;2024-02-14T05:04:22;7.07;;;3.90;;
82242;SDS011;71844;51.528;4.442;2024-02-14T05:06:49;9.27;;;4.32;;
82242;SDS011;71844;51.528;4.442;2024-02-14T05:09:24;7.85;;;4.57;;
82242;SDS011;71844;51.528;4.442;2024-02-14T05:11:51;6.88;;;4.57;;
82242;SDS011;71844;51.528;4.442;2024-02-14T05:14:19;8.43;;;4.25;;
82242;SDS011;71844;51.528;4.442;2024-02-14T05:16:46;7.93;;;4.80;;
82242;SDS011;71844;51.528;4.442;2024-02-14T05:19:14;8.45;;;4.70;;
82242;SDS011;71844;51.528;4.442;2024-02-14T05:21:41;7.80;;;4.32;;
82242;SDS011;71844;51.528;4.442;2024-02-14T05:24:08;10.80;;;4.85;;
82242;SDS011;71844;51.528;4.442;2024-02-14T05:26:35;6.75;;;4.50;;
82242;SDS011;71844;51.528;4.442;2024-02-14T05:29:02;8.05;;;5.43;;
82242;SDS011;71844;51.528;4.442;2024-02-14T05:34:14;8.95;;;4.57;;
82242;SDS011;71844;51.528;4.442;2024-02-14T05:36:41;9.15;;;4.80;;
82242;SDS011;71844;51.528;4.442;2024-02-14T05:39:12;8.70;;;4.85;;
82242;SDS011;71844;51.528;4.442;2024-02-14T05:41:40;10.52;;;4.40;;
82242;SDS011;71844;51.528;4.442;2024-02-14T05:44:07;7.85;;;4.03;;
82242;SDS011;71844;51.528;4.442;2024-02-14T05:46:34;6.93;;;3.63;;
82242;SDS011;71844;51.528;4.442;2024-02-14T05:49:01;7.53;;;4.22;;
82242;SDS011;71844;51.528;4.442;2024-02-14T05:51:28;7.05;;;4.55;;
82242;SDS011;71844;51.528;4.442;2024-02-14T05:53:55;8.20;;;4.53;;
82242;SDS011;71844;51.528;4.442;2024-02-14T05:56:22;8.45;;;4.28;;
82242;SDS011;71844;51.528;4.442;2024-02-14T05:58:49;10.35;;;4.25;;
82242;SDS011;71844;51.528;4.442;2024-02-14T06:01:16;10.73;;;4.40;;
82242;SDS011;71844;51.528;4.442;2024-02-14T06:03:43;8.00;;;3.72;;
82242;SDS011;71844;51.528;4.442;2024-02-14T06:06:10;10.77;;;5.22;;
82242;SDS011;71844;51.528;4.442;2024-02-14T06:08:37;9.15;;;4.60;;
82242;SDS011;71844;51.528;4.442;2024-02-14T06:11:04;11.30;;;5.07;;
82242;SDS011;71844;51.528;4.442;2024-02-14T06:13:31;11.25;;;5.15;;
82242;SDS011;71844;51.528;4.442;2024-02-14T06:15:59;8.88;;;5.40;;
82242;SDS011;71844;51.528;4.442;2024-02-14T06:18:26;9.65;;;5.03;;
82242;SDS011;71844;51.528;4.442;2024-02-14T06:20:53;10.30;;;5.10;;
82242;SDS011;71844;51.528;4.442;2024-02-14T06:23:20;12.05;;;5.40;;
82242;SDS011;71844;51.528;4.442;2024-02-14T06:25:47;10.80;;;5.32;;
82242;SDS011;71844;51.528;4.442;2024-02-14T06:28:14;7.57;;;4.63;;
82242;SDS011;71844;51.528;4.442;2024-02-14T06:30:41;7.97;;;4.28;;
82242;SDS011;71844;51.528;4.442;2024-02-14T06:33:08;8.27;;;4.22;;
82242;SDS011;71844;51.528;4.442;2024-02-14T06:35:35;10.02;;;4.50;;
82242;SDS011;71844;51.528;4.442;2024-02-14T06:38:02;9.38;;;4.60;;
82242;SDS011;71844;51.528;4.442;2024-02-14T06:40:31;7.93;;;4.07;;
82242;SDS011;71844;51.528;4.442;2024-02-14T06:42:58;8.15;;;4.25;;
82242;SDS011;71844;51.528;4.442;2024-02-14T06:45:27;10.68;;;4.85;;
82242;SDS011;71844;51.528;4.442;2024-02-14T06:47:54;8.43;;;4.68;;
82242;SDS011;71844;51.528;4.442;2024-02-14T06:50:22;7.57;;;4.63;;
82242;SDS011;71844;51.528;4.442;2024-02-14T06:52:51;10.02;;;4.35;;
82242;SDS011;71844;51.528;4.442;2024-02-14T06:55:18;8.10;;;4.50;;
82242;SDS011;71844;51.528;4.442;2024-02-14T06:57:45;11.13;;;4.55;;
82242;SDS011;71844;51.528;4.442;2024-02-14T07:00:12;9.57;;;4.20;;
82242;SDS011;71844;51.528;4.442;2024-02-14T07:02:40;11.57;;;4.18;;
82242;SDS011;71844;51.528;4.442;2024-02-14T07:05:07;9.75;;;4.13;;
82242;SDS011;71844;51.528;4.442;2024-02-14T07:07:35;8.98;;;3.75;;
82242;SDS011;71844;51.528;4.442;2024-02-14T07:10:02;7.40;;;3.63;;
82242;SDS011;71844;51.528;4.442;2024-02-14T07:12:32;9.25;;;4.43;;
82242;SDS011;71844;51.528;4.442;2024-02-14T07:14:59;8.48;;;4.63;;
82242;SDS011;71844;51.528;4.442;2024-02-14T07:17:26;7.97;;;4.47;;
82242;SDS011;71844;51.528;4.442;2024-02-14T07:19:53;8.50;;;5.03;;
82242;SDS011;71844;51.528;4.442;2024-02-14T07:22:20;10.38;;;5.70;;
82242;SDS011;71844;51.528;4.442;2024-02-14T07:24:47;7.28;;;4.63;;
82242;SDS011;71844;51.528;4.442;2024-02-14T07:27:15;7.15;;;4.03;;
82242;SDS011;71844;51.528;4.442;2024-02-14T07:29:43;10.63;;;4.35;;
82242;SDS011;71844;51.528;4.442;2024-02-14T07:32:11;8.32;;;4.28;;
82242;SDS011;71844;51.528;4.442;2024-02-14T07:34:38;8.10;;;4.32;;
82242;SDS011;71844;51.528;4.442;2024-02-14T07:37:08;8.02;;;4.00;;
82242;SDS011;71844;51.528;4.442;2024-02-14T07:39:35;7.93;;;3.83;;
82242;SDS011;71844;51.528;4.442;2024-02-14T07:42:02;7.95;;;3.67;;
82242;SDS011;71844;51.528;4.442;2024-02-14T07:44:30;8.60;;;3.53;;
82242;SDS011;71844;51.528;4.442;2024-02-14T07:46:57;8.18;;;3.45;;
82242;SDS011;71844;51.528;4.442;2024-02-14T07:49:29;8.57;;;3.40;;
82242;SDS011;71844;51.528;4.442;2024-02-14T07:51:57;8.80;;;3.60;;
82242;SDS011;71844;51.528;4.442;2024-02-14T07:54:24;11.32;;;3.97;;
82242;SDS011;71844;51.528;4.442;2024-02-14T07:56:50;6.63;;;3.42;;
82242;SDS011;71844;51.528;4.442;2024-02-14T07:59:17;12.32;;;4.75;;
82242;SDS011;71844;51.528;4.442;2024-02-14T08:01:44;6.38;;;3.58;;
82242;SDS011;71844;51.528;4.442;2024-02-14T08:04:11;6.18;;;3.30;;
82242;SDS011;71844;51.528;4.442;2024-02-14T08:06:38;6.18;;;3.10;;
82242;SDS011;71844;51.528;4.442;2024-02-14T08:09:05;8.68;;;3.42;;
82242;SDS011;71844;51.528;4.442;2024-02-14T08:11:36;6.53;;;3.70;;
82242;SDS011;71844;51.528;4.442;2024-02-14T08:14:03;9.57;;;4.30;;
82242;SDS011;71844;51.528;4.442;2024-02-14T08:16:31;10.50;;;3.80;;
82242;SDS011;71844;51.528;4.442;2024-02-14T08:18:58;9.50;;;4.25;;
82242;SDS011;71844;51.528;4.442;2024-02-14T08:21:26;9.18;;;4.20;;
82242;SDS011;71844;51.528;4.442;2024-02-14T08:23:57;10.52;;;3.55;;
82242;SDS011;71844;51.528;4.442;2024-02-14T08:26:26;5.60;;;3.67;;
82242;SDS011;71844;51.528;4.442;2024-02-14T08:28:55;7.38;;;4.00;;
82242;SDS011;71844;51.528;4.442;2024-02-14T08:31:22;8.20;;;4.25;;
82242;SDS011;71844;51.528;4.442;2024-02-14T08:33:49;16.15;;;4.35;;
82242;SDS011;71844;51.528;4.442;2024-02-14T08:36:17;6.10;;;3.47;;
82242;SDS011;71844;51.528;4.442;2024-02-14T08:38:46;7.50;;;3.80;;
82242;SDS011;71844;51.528;4.442;2024-02-14T08:41:14;8.60;;;3.13;;
82242;SDS011;71844;51.528;4.442;2024-02-14T08:43:41;7.85;;;3.50;;
82242;SDS011;71844;51.528;4.442;2024-02-14T08:46:13;7.38;;;3.25;;
82242;SDS011;71844;51.528;4.442;2024-02-14T08:48:40;8.82;;;3.50;;
82242;SDS011;71844;51.528;4.442;2024-02-14T08:51:14;5.78;;;3.40;;
82242;SDS011;71844;51.528;4.442;2024-02-14T08:53:42;4.72;;;3.22;;
82242;SDS011;71844;51.528;4.442;2024-02-14T08:56:10;7.00;;;3.63;;
82242;SDS011;71844;51.528;4.442;2024-02-14T08:58:37;9.40;;;3.38;;
82242;SDS011;71844;51.528;4.442;2024-02-14T09:01:04;10.38;;;3.13;;
82242;SDS011;71844;51.528;4.442;2024-02-14T09:03:40;7.15;;;3.35;;
82242;SDS011;71844;51.528;4.442;2024-02-14T09:06:16;5.00;;;2.65;;
82242;SDS011;71844;51.528;4.442;2024-02-14T09:08:47;10.82;;;4.20;;
82242;SDS011;71844;51.528;4.442;2024-02-14T09:11:15;4.53;;;2.78;;
82242;SDS011;71844;51.528;4.442;2024-02-14T09:13:41;8.48;;;3.33;;
82242;SDS011;71844;51.528;4.442;2024-02-14T09:16:09;6.97;;;2.67;;
82242;SDS011;71844;51.528;4.442;2024-02-14T09:18:36;5.72;;;3.45;;
82242;SDS011;71844;51.528;4.442;2024-02-14T09:21:06;8.25;;;3.25;;
82242;SDS011;71844;51.528;4.442;2024-02-14T09:23:33;7.05;;;3.00;;
82242;SDS011;71844;51.528;4.442;2024-02-14T09:26:01;9.88;;;4.45;;
82242;SDS011;71844;51.528;4.442;2024-02-14T09:28:28;5.35;;;2.75;;
82242;SDS011;71844;51.528;4.442;2024-02-14T09:30:55;6.82;;;3.10;;
82242;SDS011;71844;51.528;4.442;2024-02-14T09:33:22;6.25;;;3.25;;
82242;SDS011;71844;51.528;4.442;2024-02-14T09:35:50;7.28;;;3.20;;
82242;SDS011;71844;51.528;4.442;2024-02-14T09:38:19;6.40;;;2.72;;
82242;SDS011;71844;51.528;4.442;2024-02-14T09:40:46;5.82;;;3.05;;
82242;SDS011;71844;51.528;4.442;2024-02-14T09:43:18;6.20;;;3.00;;
82242;SDS011;71844;51.528;4.442;2024-02-14T09:45:59;4.82;;;2.97;;
82242;SDS011;71844;51.528;4.442;2024-02-14T09:48:26;5.18;;;3.60;;
82242;SDS011;71844;51.528;4.442;2024-02-14T09:50:54;5.38;;;3.03;;
82242;SDS011;71844;51.528;4.442;2024-02-14T09:53:23;7.40;;;3.13;;
82242;SDS011;71844;51.528;4.442;2024-02-14T09:55:50;5.47;;;3.55;;
82242;SDS011;71844;51.528;4.442;2024-02-14T09:58:17;7.55;;;3.30;;
82242;SDS011;71844;51.528;4.442;2024-02-14T10:00:44;7.60;;;3.15;;
82242;SDS011;71844;51.528;4.442;2024-02-14T10:03:11;7.25;;;3.25;;
82242;SDS011;71844;51.528;4.442;2024-02-14T10:05:39;7.63;;;3.50;;
82242;SDS011;71844;51.528;4.442;2024-02-14T10:08:06;7.38;;;3.50;;
82242;SDS011;71844;51.528;4.442;2024-02-14T10:10:35;9.25;;;4.07;;
82242;SDS011;71844;51.528;4.442;2024-02-14T10:13:05;8.48;;;3.50;;
82242;SDS011;71844;51.528;4.442;2024-02-14T10:15:32;7.05;;;3.75;;
82242;SDS011;71844;51.528;4.442;2024-02-14T10:18:00;7.60;;;4.10;;
82242;SDS011;71844;51.528;4.442;2024-02-14T10:20:28;6.88;;;4.43;;
82242;SDS011;71844;51.528;4.442;2024-02-14T10:23:01;6.78;;;4.00;;
82242;SDS011;71844;51.528;4.442;2024-02-14T10:25:31;7.00;;;4.07;;
82242;SDS011;71844;51.528;4.442;2024-02-14T10:28:04;8.25;;;5.10;;
82242;SDS011;71844;51.528;4.442;2024-02-14T10:30:35;7.15;;;4.00;;
82242;SDS011;71844;51.528;4.442;2024-02-14T10:33:04;9.05;;;4.80;;
82242;SDS011;71844;51.528;4.442;2024-02-14T10:35:49;8.20;;;4.32;;
82242;SDS011;71844;51.528;4.442;2024-02-14T10:38:19;10.60;;;5.30;;
82242;SDS011;71844;51.528;4.442;2024-02-14T10:40:49;8.75;;;4.80;;
82242;SDS011;71844;51.528;4.442;2024-02-14T10:43:17;6.70;;;4.40;;
82242;SDS011;71844;51.528;4.442;2024-02-14T10:45:44;8.07;;;4.07;;
82242;SDS011;71844;51.528;4.442;2024-02-14T10:48:12;7.93;;;4.38;;
82242;SDS011;71844;51.528;4.442;2024-02-14T10:50:43;9.18;;;4.30;;
82242;SDS011;71844;51.528;4.442;2024-02-14T10:53:13;7.72;;;4.50;;
82242;SDS011;71844;51.528;4.442;2024-02-14T10:55:47;8.57;;;4.88;;
82242;SDS011;71844;51.528;4.442;2024-02-14T10:58:18;7.85;;;4.95;;
82242;SDS011;71844;51.528;4.442;2024-02-14T11:00:45;8.13;;;4.20;;
82242;SDS011;71844;51.528;4.442;2024-02-14T11:03:13;7.75;;;4.78;;
82242;SDS011;71844;51.528;4.442;2024-02-14T11:05:43;9.65;;;4.75;;
82242;SDS011;71844;51.528;4.442;2024-02-14T11:08:14;9.68;;;5.05;;
82242;SDS011;71844;51.528;4.442;2024-02-14T11:10:41;7.68;;;4.80;;
82242;SDS011;71844;51.528;4.442;2024-02-14T11:13:12;7.55;;;4.35;;
82242;SDS011;71844;51.528;4.442;2024-02-14T11:15:44;7.65;;;3.85;;
82242;SDS011;71844;51.528;4.442;2024-02-14T11:18:13;7.70;;;5.28;;
82242;SDS011;71844;51.528;4.442;2024-02-14T11:20:40;7.45;;;4.50;;
82242;SDS011;71844;51.528;4.442;2024-02-14T11:23:08;6.40;;;3.90;;
82242;SDS011;71844;51.528;4.442;2024-02-14T11:25:38;6.90;;;3.97;;
82242;SDS011;71844;51.528;4.442;2024-02-14T11:30:42;6.78;;;3.83;;
82242;SDS011;71844;51.528;4.442;2024-02-14T11:33:16;5.15;;;3.45;;
82242;SDS011;71844;51.528;4.442;2024-02-14T11:35:48;6.15;;;3.03;;
82242;SDS011;71844;51.528;4.442;2024-02-14T11:38:18;4.88;;;2.85;;
82242;SDS011;71844;51.528;4.442;2024-02-14T11:40:56;6.15;;;3.22;;
82242;SDS011;71844;51.528;4.442;2024-02-14T11:43:23;6.18;;;2.88;;
82242;SDS011;71844;51.528;4.442;2024-02-14T11:45:51;5.55;;;2.97;;
82242;SDS011;71844;51.528;4.442;2024-02-14T11:48:21;4.65;;;2.97;;
82242;SDS011;71844;51.528;4.442;2024-02-14T11:50:51;3.60;;;2.33;;
82242;SDS011;71844;51.528;4.442;2024-02-14T11:53:19;4.00;;;2.33;;
82242;SDS011;71844;51.528;4.442;2024-02-14T11:55:47;6.40;;;4.10;;
82242;SDS011;71844;51.528;4.442;2024-02-14T11:58:16;4.22;;;2.67;;
82242;SDS011;71844;51.528;4.442;2024-02-14T12:00:44;4.03;;;2.72;;
82242;SDS011;71844;51.528;4.442;2024-02-14T12:03:35;6.30;;;2.90;;
82242;SDS011;71844;51.528;4.442;2024-02-14T12:05:59;6.07;;;3.53;;
82242;SDS011;71844;51.528;4.442;2024-02-14T12:08:26;5.90;;;3.25;;
82242;SDS011;71844;51.528;4.442;2024-02-14T12:10:53;5.50;;;3.47;;
82242;SDS011;71844;51.528;4.442;2024-02-14T12:13:20;5.15;;;3.20;;
82242;SDS011;71844;51.528;4.442;2024-02-14T12:15:49;5.05;;;3.47;;
82242;SDS011;71844;51.528;4.442;2024-02-14T12:18:18;4.32;;;2.75;;
82242;SDS011;71844;51.528;4.442;2024-02-14T12:20:47;6.20;;;3.78;;
82242;SDS011;71844;51.528;4.442;2024-02-14T12:23:21;4.57;;;2.97;;
82242;SDS011;71844;51.528;4.442;2024-02-14T12:25:49;6.88;;;3.65;;
82242;SDS011;71844;51.528;4.442;2024-02-14T12:28:16;5.75;;;3.63;;
82242;SDS011;71844;51.528;4.442;2024-02-14T12:33:12;7.00;;;3.95;;
82242;SDS011;71844;51.528;4.442;2024-02-14T12:35:46;6.20;;;3.85;;
82242;SDS011;71844;51.528;4.442;2024-02-14T12:38:15;6.60;;;4.03;;
82242;SDS011;71844;51.528;4.442;2024-02-14T12:40:43;6.82;;;4.07;;
82242;SDS011;71844;51.528;4.442;2024-02-14T12:43:11;5.88;;;3.78;;
82242;SDS011;71844;51.528;4.442;2024-02-14T12:45:39;7.55;;;3.65;;
82242;SDS011;71844;51.528;4.442;2024-02-14T12:48:07;9.73;;;3.65;;
82242;SDS011;71844;51.528;4.442;2024-02-14T12:50:36;4.85;;;3.28;;
82242;SDS011;71844;51.528;4.442;2024-02-14T12:53:04;9.90;;;4.35;;
82242;SDS011;71844;51.528;4.442;2024-02-14T12:55:32;6.35;;;3.80;;
82242;SDS011;71844;51.528;4.442;2024-02-14T12:57:59;7.22;;;4.50;;
82242;SDS011;71844;51.528;4.442;2024-02-14T13:00:27;9.05;;;4.22;;
82242;SDS011;71844;51.528;4.442;2024-02-14T13:02:55;9.15;;;4.35;;
82242;SDS011;71844;51.528;4.442;2024-02-14T13:05:22;9.40;;;5.43;;
82242;SDS011;71844;51.528;4.442;2024-02-14T13:07:50;5.93;;;3.65;;
82242;SDS011;71844;51.528;4.442;2024-02-14T13:10:17;7.13;;;3.80;;
82242;SDS011;71844;51.528;4.442;2024-02-14T13:12:47;7.18;;;3.58;;
82242;SDS011;71844;51.528;4.442;2024-02-14T13:15:14;6.00;;;3.33;;
82242;SDS011;71844;51.528;4.442;2024-02-14T13:17:42;5.63;;;3.08;;
82242;SDS011;71844;51.528;4.442;2024-02-14T13:20:09;7.07;;;3.47;;
82242;SDS011;71844;51.528;4.442;2024-02-14T13:22:37;4.78;;;2.53;;
82242;SDS011;71844;51.528;4.442;2024-02-14T13:25:04;4.90;;;3.17;;
82242;SDS011;71844;51.528;4.442;2024-02-14T13:27:31;5.93;;;2.83;;
82242;SDS011;71844;51.528;4.442;2024-02-14T13:29:59;4.50;;;2.70;;
82242;SDS011;71844;51.528;4.442;2024-02-14T13:32:26;5.20;;;3.20;;
82242;SDS011;71844;51.528;4.442;2024-02-14T13:34:53;5.38;;;2.40;;
82242;SDS011;71844;51.528;4.442;2024-02-14T13:37:20;5.47;;;2.95;;
82242;SDS011;71844;51.528;4.442;2024-02-14T13:42:23;6.22;;;2.90;;
82242;SDS011;71844;51.528;4.442;2024-02-14T13:44:49;4.97;;;2.80;;
82242;SDS011;71844;51.528;4.442;2024-02-14T13:47:19;4.20;;;2.97;;
82242;SDS011;71844;51.528;4.442;2024-02-14T13:49:47;4.22;;;2.60;;
82242;SDS011;71844;51.528;4.442;2024-02-14T13:52:14;5.97;;;2.70;;
82242;SDS011;71844;51.528;4.442;2024-02-14T13:54:43;4.80;;;2.97;;
82242;SDS011;71844;51.528;4.442;2024-02-14T13:57:10;4.10;;;2.90;;
82242;SDS011;71844;51.528;4.442;2024-02-14T13:59:38;4.10;;;3.00;;
82242;SDS011;71844;51.528;4.442;2024-02-14T14:02:05;4.53;;;2.47;;
82242;SDS011;71844;51.528;4.442;2024-02-14T14:04:32;5.22;;;2.63;;
82242;SDS011;71844;51.528;4.442;2024-02-14T14:07:01;4.70;;;2.40;;
82242;SDS011;71844;51.528;4.442;2024-02-14T14:09:31;4.40;;;2.47;;
82242;SDS011;71844;51.528;4.442;2024-02-14T14:11:59;4.97;;;2.47;;
82242;SDS011;71844;51.528;4.442;2024-02-14T14:14:26;4.90;;;2.67;;
82242;SDS011;71844;51.528;4.442;2024-02-14T14:16:55;6.40;;;3.17;;
82242;SDS011;71844;51.528;4.442;2024-02-14T14:19:21;5.22;;;2.20;;
82242;SDS011;71844;51.528;4.442;2024-02-14T14:21:49;4.32;;;2.00;;
82242;SDS011;71844;51.528;4.442;2024-02-14T14:24:15;5.10;;;2.10;;
82242;SDS011;71844;51.528;4.442;2024-02-14T14:26:42;5.20;;;2.40;;
82242;SDS011;71844;51.528;4.442;2024-02-14T14:29:09;4.45;;;2.35;;
82242;SDS011;71844;51.528;4.442;2024-02-14T14:31:37;3.83;;;2.22;;
82242;SDS011;71844;51.528;4.442;2024-02-14T14:34:03;5.13;;;2.50;;
82242;SDS011;71844;51.528;4.442;2024-02-14T14:36:31;4.03;;;2.10;;
82242;SDS011;71844;51.528;4.442;2024-02-14T14:38:58;4.75;;;2.28;;
82242;SDS011;71844;51.528;4.442;2024-02-14T14:41:25;3.10;;;1.83;;
82242;SDS011;71844;51.528;4.442;2024-02-14T14:43:52;4.20;;;2.00;;
82242;SDS011;71844;51.528;4.442;2024-02-14T14:46:19;3.42;;;1.98;;
82242;SDS011;71844;51.528;4.442;2024-02-14T14:48:47;3.92;;;2.25;;
82242;SDS011;71844;51.528;4.442;2024-02-14T14:51:15;4.13;;;2.42;;
82242;SDS011;71844;51.528;4.442;2024-02-14T14:53:42;3.22;;;1.98;;
82242;SDS011;71844;51.528;4.442;2024-02-14T14:56:09;4.53;;;2.15;;
82242;SDS011;71844;51.528;4.442;2024-02-14T14:58:36;5.70;;;2.42;;
82242;SDS011;71844;51.528;4.442;2024-02-14T15:01:03;3.90;;;2.17;;
82242;SDS011;71844;51.528;4.442;2024-02-14T15:03:33;3.67;;;2.00;;
82242;SDS011;71844;51.528;4.442;2024-02-14T15:06:00;4.00;;;1.92;;